WetterOnline ( https://www.wetteronline.de )

Wetter aktuell Langen Brütz

Aktuelles Wetter: Goldberg (58m)

6-stündlich | Neueste Meldungen
Ortszeit Temperatur Wetter
Sa, 19.09. 2:00 7.6° C wolkig
Fr, 18.09. 20:00 13.5° C wolkig
Fr, 18.09. 14:00 17.8° C wolkenlos
Fr, 18.09. 8:00 5.1° C Nebel
Fr, 18.09. 2:00 5.8° C wolkenlos
Do, 17.09. 20:00 12.3° C wolkenlos
Do, 17.09. 14:00 16.6° C fast wolkenlos
Do, 17.09. 8:00 10.4° C wolkenlos
Ortszeit Temperatur Wetter
Sa, 19.09. 5:30 6.3° C leicht bewölkt
Sa, 19.09. 5:20 6.3° C leicht bewölkt
Sa, 19.09. 5:10 6.8° C wolkig
Sa, 19.09. 5:00 7.3° C wolkig
Sa, 19.09. 4:50 7.3° C wolkig
Sa, 19.09. 4:40 7.1° C wolkig
Sa, 19.09. 4:30 6.1° C wolkig
Sa, 19.09. 4:00 6.9° C leicht bewölkt
Ortszeit Relative Feuchte Sichtweite
Sa, 19.09. 2:00 88% 60 km
Fr, 18.09. 20:00 55% 40 km
Fr, 18.09. 14:00 45% 65 km
Fr, 18.09. 8:00 99% 100 m
Fr, 18.09. 2:00 95% 45 km
Do, 17.09. 20:00 61% 45 km
Do, 17.09. 14:00 43% 50 km
Do, 17.09. 8:00 72% >70 km
Ortszeit Relative Feuchte Sichtweite
Sa, 19.09. 5:30 93% 55 km
Sa, 19.09. 5:20 93% -
Sa, 19.09. 5:10 91% -
Sa, 19.09. 5:00 90% 60 km
Sa, 19.09. 4:50 90% -
Sa, 19.09. 4:40 94% -
Sa, 19.09. 4:30 93% 40 km
Sa, 19.09. 4:00 93% 50 km
Ortszeit Niederschlagsmenge Niederschlagsart
Sa, 19.09. 2:00 0.0 l/m2 in 6 Std. -
Fr, 18.09. 20:00 0.1 l/m2 in 12 Std. -
Fr, 18.09. 14:00 0.1 l/m2 in 6 Std. -
Fr, 18.09. 8:00 0.0 l/m2 in 12 Std. -
Fr, 18.09. 2:00 0.0 l/m2 in 6 Std. -
Do, 17.09. 20:00 0.0 l/m2 in 12 Std. -
Do, 17.09. 14:00 0.0 l/m2 in 6 Std. -
Do, 17.09. 8:00 0.0 l/m2 in 12 Std. -
Ortszeit Niederschlagsmenge Niederschlagsart
Sa, 19.09. 5:30 0.0 l/m2 in 1 Std. -
Sa, 19.09. 5:20 keine Meldung -
Sa, 19.09. 5:10 keine Meldung -
Sa, 19.09. 5:00 0.0 l/m2 in 1 Std. -
Sa, 19.09. 4:50 keine Meldung -
Sa, 19.09. 4:40 keine Meldung -
Sa, 19.09. 4:30 0.0 l/m2 in 1 Std. -
Sa, 19.09. 4:00 0.0 l/m2 in 1 Std. -
Ortszeit Stärke Spitze Richtung
km/h Bft. km/h Grad Sektor
Sa, 19.09. 2:00 4 1 14 60° NO
Fr, 18.09. 20:00 4 1 11 60° NO
Fr, 18.09. 14:00 7 2 11 140° SO
Fr, 18.09. 8:00 0 0 7 - -
Fr, 18.09. 2:00 4 1 14 360° N
Do, 17.09. 20:00 7 2 32 10° N
Do, 17.09. 14:00 14 3 36 10° N
Do, 17.09. 8:00 11 2 29 360° N
Ortszeit Stärke Spitze Richtung
km/h Bft. km/h Grad Sektor
Sa, 19.09. 5:30 4 1 7 60° NO
Sa, 19.09. 5:20 4 1 - 60° NO
Sa, 19.09. 5:10 4 1 - 50° NO
Sa, 19.09. 5:00 4 1 11 60° NO
Sa, 19.09. 4:50 4 1 - 60° NO
Sa, 19.09. 4:40 6 1 - 60° NO
Sa, 19.09. 4:30 4 1 7 90° O
Sa, 19.09. 4:00 4 1 7 160° S
Ortszeit Untergrenze Bedeckung Gattung
total tief tief mittel hoch
Sa, 19.09. 2:00 12000 m 8/8 0/8 - - -
Fr, 18.09. 20:00 9000 m 8/8 0/8 - - -
Fr, 18.09. 14:00 - 0/8 0/8 - - -
Fr, 18.09. 8:00 <30 m 7/8 0/8 - - -
Fr, 18.09. 2:00 - 0/8 0/8 - - -
Do, 17.09. 20:00 - 0/8 0/8 - - -
Do, 17.09. 14:00 8400 m 1/8 0/8 - - -
Do, 17.09. 8:00 - 0/8 0/8 - - -
Ortszeit Bedeckungsgrad in Achtel und Wolkenuntergrenze
Sa, 19.09. 5:30 4(10500m)
Sa, 19.09. 5:20 4(10500m)
Sa, 19.09. 5:10 8(10500m) 8(12000m)
Sa, 19.09. 5:00 8(10500m) 8(12000m)
Sa, 19.09. 4:50 8(10500m) 8(12000m)
Sa, 19.09. 4:40 8(10500m) 8(12000m)
Sa, 19.09. 4:30 7(10500m)
Sa, 19.09. 4:00 4(9000m) 6(12000m)
Ortszeit Luftdruck NN (hPa) Tendenz (hPa in 3 Std.)
Sa, 19.09. 2:00 1027 - 0,6
Fr, 18.09. 20:00 1028 - 0,7
Fr, 18.09. 14:00 1030 - 1,3
Fr, 18.09. 8:00 1031 + 0,2
Fr, 18.09. 2:00 1031 - 0,4
Do, 17.09. 20:00 1031 + 0,5
Do, 17.09. 14:00 1030 + 0,5
Do, 17.09. 8:00 1028 + 2,6
Ortszeit Luftdruck NN (hPa) Tendenz (hPa in 3 Std.)
Sa, 19.09. 5:30 1026 - 1,5
Sa, 19.09. 5:20 1026 keine Meldung
Sa, 19.09. 5:10 1026 keine Meldung
Sa, 19.09. 5:00 1026 - 1,3
Sa, 19.09. 4:50 1026 keine Meldung
Sa, 19.09. 4:40 1026 keine Meldung
Sa, 19.09. 4:30 1026 - 1,2
Sa, 19.09. 4:00 1027 - 1,0
Ortszeit Schneehöhe (cm)
Sa, 19.09. 2:00 -
Fr, 18.09. 20:00 -
Fr, 18.09. 14:00 -
Fr, 18.09. 8:00 -
Fr, 18.09. 2:00 -
Do, 17.09. 20:00 -
Do, 17.09. 14:00 -
Do, 17.09. 8:00 -
Ortszeit Schneehöhe (cm)
Sa, 19.09. 5:30 -
Sa, 19.09. 5:20 -
Sa, 19.09. 5:10 -
Sa, 19.09. 5:00 -
Sa, 19.09. 4:50 -
Sa, 19.09. 4:40 -
Sa, 19.09. 4:30 -
Sa, 19.09. 4:00 -
Link zu dieser Seite / Seite empfehlen

Das Wetter in ...